sensor_id;sensor_type;location;lat;lon;timestamp;P1;durP1;ratioP1;P2;durP2;ratioP2
24305;SDS011;12423;48.768;8.850;2023-02-11T00:00:56;364.33;;;105.18;;
24305;SDS011;12423;48.768;8.850;2023-02-11T00:02:57;344.25;;;95.68;;
24305;SDS011;12423;48.768;8.850;2023-02-11T00:04:58;354.42;;;101.43;;
24305;SDS011;12423;48.768;8.850;2023-02-11T00:07:03;323.45;;;93.88;;
24305;SDS011;12423;48.768;8.850;2023-02-11T00:09:04;344.88;;;94.03;;
24305;SDS011;12423;48.768;8.850;2023-02-11T00:11:05;337.40;;;91.68;;
24305;SDS011;12423;48.768;8.850;2023-02-11T00:13:07;315.70;;;88.28;;
24305;SDS011;12423;48.768;8.850;2023-02-11T00:15:08;340.88;;;93.80;;
24305;SDS011;12423;48.768;8.850;2023-02-11T00:17:09;346.60;;;89.68;;
24305;SDS011;12423;48.768;8.850;2023-02-11T00:19:10;326.10;;;95.68;;
24305;SDS011;12423;48.768;8.850;2023-02-11T00:21:18;312.13;;;88.43;;
24305;SDS011;12423;48.768;8.850;2023-02-11T00:23:21;324.83;;;84.55;;
24305;SDS011;12423;48.768;8.850;2023-02-11T00:25:22;323.00;;;82.85;;
24305;SDS011;12423;48.768;8.850;2023-02-11T00:27:23;348.45;;;90.00;;
24305;SDS011;12423;48.768;8.850;2023-02-11T00:29:25;345.48;;;91.57;;
24305;SDS011;12423;48.768;8.850;2023-02-11T00:31:26;361.88;;;97.43;;
24305;SDS011;12423;48.768;8.850;2023-02-11T00:33:27;351.85;;;89.78;;
24305;SDS011;12423;48.768;8.850;2023-02-11T00:35:28;342.15;;;95.55;;
24305;SDS011;12423;48.768;8.850;2023-02-11T00:37:29;337.05;;;96.78;;
24305;SDS011;12423;48.768;8.850;2023-02-11T00:39:30;345.58;;;89.18;;
24305;SDS011;12423;48.768;8.850;2023-02-11T00:41:32;379.95;;;97.10;;
24305;SDS011;12423;48.768;8.850;2023-02-11T00:43:34;364.70;;;90.07;;
24305;SDS011;12423;48.768;8.850;2023-02-11T00:45:35;395.20;;;92.57;;
24305;SDS011;12423;48.768;8.850;2023-02-11T00:47:36;393.30;;;96.25;;
24305;SDS011;12423;48.768;8.850;2023-02-11T00:49:37;369.60;;;91.85;;
24305;SDS011;12423;48.768;8.850;2023-02-11T00:51:39;397.92;;;94.30;;
24305;SDS011;12423;48.768;8.850;2023-02-11T00:53:41;404.38;;;97.38;;
24305;SDS011;12423;48.768;8.850;2023-02-11T00:55:42;351.73;;;92.85;;
24305;SDS011;12423;48.768;8.850;2023-02-11T00:57:43;354.25;;;89.43;;
24305;SDS011;12423;48.768;8.850;2023-02-11T00:59:43;342.23;;;84.07;;
24305;SDS011;12423;48.768;8.850;2023-02-11T01:01:44;340.10;;;86.78;;
24305;SDS011;12423;48.768;8.850;2023-02-11T01:03:45;351.35;;;92.47;;
24305;SDS011;12423;48.768;8.850;2023-02-11T01:05:46;332.92;;;85.38;;
24305;SDS011;12423;48.768;8.850;2023-02-11T01:07:47;343.67;;;86.22;;
24305;SDS011;12423;48.768;8.850;2023-02-11T01:09:50;353.60;;;89.47;;
24305;SDS011;12423;48.768;8.850;2023-02-11T01:11:51;343.48;;;85.28;;
24305;SDS011;12423;48.768;8.850;2023-02-11T01:13:52;354.40;;;90.18;;
24305;SDS011;12423;48.768;8.850;2023-02-11T01:15:53;383.85;;;93.93;;
24305;SDS011;12423;48.768;8.850;2023-02-11T01:17:55;367.33;;;89.63;;
24305;SDS011;12423;48.768;8.850;2023-02-11T01:19:56;283.10;;;75.60;;
24305;SDS011;12423;48.768;8.850;2023-02-11T01:21:57;145.45;;;75.95;;
24305;SDS011;12423;48.768;8.850;2023-02-11T01:23:58;210.38;;;73.57;;
24305;SDS011;12423;48.768;8.850;2023-02-11T01:25:59;185.18;;;73.30;;
24305;SDS011;12423;48.768;8.850;2023-02-11T01:28:02;273.63;;;85.93;;
24305;SDS011;12423;48.768;8.850;2023-02-11T01:30:05;283.17;;;86.07;;
24305;SDS011;12423;48.768;8.850;2023-02-11T01:32:08;295.23;;;84.07;;
24305;SDS011;12423;48.768;8.850;2023-02-11T01:34:09;260.80;;;81.68;;
24305;SDS011;12423;48.768;8.850;2023-02-11T01:36:11;254.73;;;80.13;;
24305;SDS011;12423;48.768;8.850;2023-02-11T01:38:16;245.85;;;79.00;;
24305;SDS011;12423;48.768;8.850;2023-02-11T01:40:20;254.25;;;80.75;;
24305;SDS011;12423;48.768;8.850;2023-02-11T01:42:22;220.45;;;79.53;;
24305;SDS011;12423;48.768;8.850;2023-02-11T01:44:31;262.17;;;79.10;;
24305;SDS011;12423;48.768;8.850;2023-02-11T01:46:37;256.45;;;75.35;;
24305;SDS011;12423;48.768;8.850;2023-02-11T01:48:39;265.75;;;83.13;;
24305;SDS011;12423;48.768;8.850;2023-02-11T01:50:43;271.42;;;81.70;;
24305;SDS011;12423;48.768;8.850;2023-02-11T01:52:47;228.93;;;78.13;;
24305;SDS011;12423;48.768;8.850;2023-02-11T01:54:50;206.75;;;76.82;;
24305;SDS011;12423;48.768;8.850;2023-02-11T01:57:12;180.85;;;72.30;;
24305;SDS011;12423;48.768;8.850;2023-02-11T01:59:29;165.38;;;71.45;;
24305;SDS011;12423;48.768;8.850;2023-02-11T02:01:34;167.95;;;70.97;;
24305;SDS011;12423;48.768;8.850;2023-02-11T02:03:38;189.50;;;69.68;;
24305;SDS011;12423;48.768;8.850;2023-02-11T02:05:53;184.73;;;67.78;;
24305;SDS011;12423;48.768;8.850;2023-02-11T02:08:02;182.63;;;72.38;;
24305;SDS011;12423;48.768;8.850;2023-02-11T02:10:14;195.95;;;74.25;;
24305;SDS011;12423;48.768;8.850;2023-02-11T02:12:18;173.20;;;71.65;;
24305;SDS011;12423;48.768;8.850;2023-02-11T02:14:19;117.10;;;59.58;;
24305;SDS011;12423;48.768;8.850;2023-02-11T02:16:20;129.38;;;65.78;;
24305;SDS011;12423;48.768;8.850;2023-02-11T02:18:46;162.23;;;71.75;;
24305;SDS011;12423;48.768;8.850;2023-02-11T02:23:22;189.30;;;69.03;;
24305;SDS011;12423;48.768;8.850;2023-02-11T02:25:41;238.40;;;74.28;;
24305;SDS011;12423;48.768;8.850;2023-02-11T02:37:20;351.40;;;84.32;;
24305;SDS011;12423;48.768;8.850;2023-02-11T02:39:30;330.23;;;81.93;;
24305;SDS011;12423;48.768;8.850;2023-02-11T02:41:35;326.90;;;81.78;;
24305;SDS011;12423;48.768;8.850;2023-02-11T02:43:40;328.67;;;79.57;;
24305;SDS011;12423;48.768;8.850;2023-02-11T02:45:43;331.75;;;84.20;;
24305;SDS011;12423;48.768;8.850;2023-02-11T02:47:44;329.35;;;79.63;;
24305;SDS011;12423;48.768;8.850;2023-02-11T02:49:45;343.67;;;85.35;;
24305;SDS011;12423;48.768;8.850;2023-02-11T02:54:05;314.35;;;80.28;;
24305;SDS011;12423;48.768;8.850;2023-02-11T02:56:38;237.85;;;58.20;;
24305;SDS011;12423;48.768;8.850;2023-02-11T02:58:53;323.83;;;82.90;;
24305;SDS011;12423;48.768;8.850;2023-02-11T03:01:26;314.00;;;80.47;;
24305;SDS011;12423;48.768;8.850;2023-02-11T03:03:40;315.70;;;80.85;;
24305;SDS011;12423;48.768;8.850;2023-02-11T03:05:51;315.45;;;95.32;;
24305;SDS011;12423;48.768;8.850;2023-02-11T03:08:06;300.90;;;74.90;;
24305;SDS011;12423;48.768;8.850;2023-02-11T03:10:26;297.70;;;81.72;;
24305;SDS011;12423;48.768;8.850;2023-02-11T03:12:30;300.98;;;80.53;;
24305;SDS011;12423;48.768;8.850;2023-02-11T03:14:34;311.45;;;80.18;;
24305;SDS011;12423;48.768;8.850;2023-02-11T03:16:35;331.90;;;82.15;;
24305;SDS011;12423;48.768;8.850;2023-02-11T03:18:39;354.13;;;89.45;;
24305;SDS011;12423;48.768;8.850;2023-02-11T03:20:44;339.33;;;81.95;;
24305;SDS011;12423;48.768;8.850;2023-02-11T03:22:57;340.77;;;84.35;;
24305;SDS011;12423;48.768;8.850;2023-02-11T03:25:05;348.88;;;79.80;;
24305;SDS011;12423;48.768;8.850;2023-02-11T03:29:20;425.67;;;94.78;;
24305;SDS011;12423;48.768;8.850;2023-02-11T03:36:49;505.15;;;142.30;;
24305;SDS011;12423;48.768;8.850;2023-02-11T03:38:54;502.70;;;149.00;;
24305;SDS011;12423;48.768;8.850;2023-02-11T03:40:57;450.58;;;110.45;;
24305;SDS011;12423;48.768;8.850;2023-02-11T03:43:03;394.52;;;84.43;;
24305;SDS011;12423;48.768;8.850;2023-02-11T03:45:10;403.77;;;84.60;;
24305;SDS011;12423;48.768;8.850;2023-02-11T03:47:15;367.23;;;83.72;;
24305;SDS011;12423;48.768;8.850;2023-02-11T03:49:20;340.05;;;85.18;;
24305;SDS011;12423;48.768;8.850;2023-02-11T03:51:24;340.48;;;80.50;;
24305;SDS011;12423;48.768;8.850;2023-02-11T03:53:26;345.05;;;80.50;;
24305;SDS011;12423;48.768;8.850;2023-02-11T03:55:28;340.58;;;86.70;;
24305;SDS011;12423;48.768;8.850;2023-02-11T03:57:33;326.05;;;83.03;;
24305;SDS011;12423;48.768;8.850;2023-02-11T03:59:48;340.85;;;85.10;;
24305;SDS011;12423;48.768;8.850;2023-02-11T04:01:53;374.20;;;84.15;;
24305;SDS011;12423;48.768;8.850;2023-02-11T04:03:54;336.38;;;80.05;;
24305;SDS011;12423;48.768;8.850;2023-02-11T04:05:55;348.05;;;85.50;;
24305;SDS011;12423;48.768;8.850;2023-02-11T04:07:56;315.45;;;81.22;;
24305;SDS011;12423;48.768;8.850;2023-02-11T04:09:57;321.42;;;80.55;;
24305;SDS011;12423;48.768;8.850;2023-02-11T04:11:59;326.00;;;83.85;;
24305;SDS011;12423;48.768;8.850;2023-02-11T04:14:00;328.30;;;80.68;;
24305;SDS011;12423;48.768;8.850;2023-02-11T04:16:01;391.10;;;90.72;;
24305;SDS011;12423;48.768;8.850;2023-02-11T04:18:02;397.95;;;93.68;;
24305;SDS011;12423;48.768;8.850;2023-02-11T04:20:03;345.30;;;83.15;;
24305;SDS011;12423;48.768;8.850;2023-02-11T04:22:04;332.48;;;85.75;;
24305;SDS011;12423;48.768;8.850;2023-02-11T04:24:06;331.58;;;85.90;;
24305;SDS011;12423;48.768;8.850;2023-02-11T04:26:07;333.23;;;87.32;;
24305;SDS011;12423;48.768;8.850;2023-02-11T04:28:08;331.05;;;80.47;;
24305;SDS011;12423;48.768;8.850;2023-02-11T04:30:09;349.35;;;83.93;;
24305;SDS011;12423;48.768;8.850;2023-02-11T04:32:10;362.05;;;85.85;;
24305;SDS011;12423;48.768;8.850;2023-02-11T04:34:11;387.80;;;88.40;;
24305;SDS011;12423;48.768;8.850;2023-02-11T04:36:13;423.90;;;94.55;;
24305;SDS011;12423;48.768;8.850;2023-02-11T04:38:15;376.02;;;85.68;;
24305;SDS011;12423;48.768;8.850;2023-02-11T04:40:16;363.38;;;89.30;;
24305;SDS011;12423;48.768;8.850;2023-02-11T04:42:17;360.13;;;86.05;;
24305;SDS011;12423;48.768;8.850;2023-02-11T04:44:18;365.38;;;90.32;;
24305;SDS011;12423;48.768;8.850;2023-02-11T04:46:19;396.20;;;92.68;;
24305;SDS011;12423;48.768;8.850;2023-02-11T04:48:20;364.52;;;83.90;;
24305;SDS011;12423;48.768;8.850;2023-02-11T04:50:21;349.42;;;86.97;;
24305;SDS011;12423;48.768;8.850;2023-02-11T04:52:22;365.75;;;91.60;;
24305;SDS011;12423;48.768;8.850;2023-02-11T04:54:23;350.52;;;89.97;;
24305;SDS011;12423;48.768;8.850;2023-02-11T04:56:24;352.90;;;91.80;;
24305;SDS011;12423;48.768;8.850;2023-02-11T04:58:24;362.80;;;91.22;;
24305;SDS011;12423;48.768;8.850;2023-02-11T05:00:25;348.05;;;85.22;;
24305;SDS011;12423;48.768;8.850;2023-02-11T05:02:26;344.60;;;82.55;;
24305;SDS011;12423;48.768;8.850;2023-02-11T05:04:27;362.75;;;89.38;;
24305;SDS011;12423;48.768;8.850;2023-02-11T05:06:28;384.67;;;95.10;;
24305;SDS011;12423;48.768;8.850;2023-02-11T05:08:29;369.27;;;93.47;;
24305;SDS011;12423;48.768;8.850;2023-02-11T05:10:31;374.65;;;92.55;;
24305;SDS011;12423;48.768;8.850;2023-02-11T05:12:32;358.77;;;91.28;;
24305;SDS011;12423;48.768;8.850;2023-02-11T05:14:33;463.00;;;103.45;;
24305;SDS011;12423;48.768;8.850;2023-02-11T05:16:34;376.02;;;88.07;;
24305;SDS011;12423;48.768;8.850;2023-02-11T05:18:39;392.13;;;89.47;;
24305;SDS011;12423;48.768;8.850;2023-02-11T05:20:41;399.20;;;91.70;;
24305;SDS011;12423;48.768;8.850;2023-02-11T05:22:43;403.70;;;96.50;;
24305;SDS011;12423;48.768;8.850;2023-02-11T05:24:44;360.88;;;93.07;;
24305;SDS011;12423;48.768;8.850;2023-02-11T05:26:45;153.50;;;72.32;;
24305;SDS011;12423;48.768;8.850;2023-02-11T05:28:46;241.20;;;88.07;;
24305;SDS011;12423;48.768;8.850;2023-02-11T05:30:47;230.75;;;79.13;;
24305;SDS011;12423;48.768;8.850;2023-02-11T05:32:48;253.10;;;88.63;;
24305;SDS011;12423;48.768;8.850;2023-02-11T05:34:49;240.80;;;84.90;;
24305;SDS011;12423;48.768;8.850;2023-02-11T05:36:50;182.77;;;79.63;;
24305;SDS011;12423;48.768;8.850;2023-02-11T05:38:50;222.63;;;79.00;;
24305;SDS011;12423;48.768;8.850;2023-02-11T05:40:52;262.85;;;86.57;;
24305;SDS011;12423;48.768;8.850;2023-02-11T05:42:53;293.77;;;89.28;;
24305;SDS011;12423;48.768;8.850;2023-02-11T05:44:54;238.30;;;83.40;;
24305;SDS011;12423;48.768;8.850;2023-02-11T05:46:55;128.82;;;56.28;;
24305;SDS011;12423;48.768;8.850;2023-02-11T05:48:56;304.88;;;126.28;;
24305;SDS011;12423;48.768;8.850;2023-02-11T05:50:57;276.00;;;118.35;;
24305;SDS011;12423;48.768;8.850;2023-02-11T05:52:58;401.85;;;152.98;;
24305;SDS011;12423;48.768;8.850;2023-02-11T05:54:59;265.17;;;84.20;;
24305;SDS011;12423;48.768;8.850;2023-02-11T05:57:00;344.90;;;93.25;;
24305;SDS011;12423;48.768;8.850;2023-02-11T05:59:01;186.77;;;83.97;;
24305;SDS011;12423;48.768;8.850;2023-02-11T06:01:02;116.00;;;73.00;;
24305;SDS011;12423;48.768;8.850;2023-02-11T06:03:03;144.43;;;80.82;;
24305;SDS011;12423;48.768;8.850;2023-02-11T06:05:04;150.40;;;80.88;;
24305;SDS011;12423;48.768;8.850;2023-02-11T06:07:06;164.00;;;82.57;;
24305;SDS011;12423;48.768;8.850;2023-02-11T06:09:07;185.30;;;74.47;;
24305;SDS011;12423;48.768;8.850;2023-02-11T06:11:10;162.55;;;72.72;;
24305;SDS011;12423;48.768;8.850;2023-02-11T06:13:11;168.35;;;70.55;;
24305;SDS011;12423;48.768;8.850;2023-02-11T06:15:12;238.07;;;89.18;;
24305;SDS011;12423;48.768;8.850;2023-02-11T06:17:13;221.38;;;89.75;;
24305;SDS011;12423;48.768;8.850;2023-02-11T06:19:14;284.13;;;93.05;;
24305;SDS011;12423;48.768;8.850;2023-02-11T06:21:15;245.20;;;85.95;;
24305;SDS011;12423;48.768;8.850;2023-02-11T06:23:16;266.23;;;97.07;;
24305;SDS011;12423;48.768;8.850;2023-02-11T06:25:17;229.70;;;91.28;;
24305;SDS011;12423;48.768;8.850;2023-02-11T06:27:18;252.80;;;85.05;;
24305;SDS011;12423;48.768;8.850;2023-02-11T06:29:19;243.32;;;91.43;;
24305;SDS011;12423;48.768;8.850;2023-02-11T06:31:20;215.77;;;86.40;;
24305;SDS011;12423;48.768;8.850;2023-02-11T06:33:21;213.98;;;81.03;;
24305;SDS011;12423;48.768;8.850;2023-02-11T06:35:22;212.13;;;85.55;;
24305;SDS011;12423;48.768;8.850;2023-02-11T06:37:23;202.68;;;87.40;;
24305;SDS011;12423;48.768;8.850;2023-02-11T06:39:24;167.45;;;82.07;;
24305;SDS011;12423;48.768;8.850;2023-02-11T06:41:25;213.02;;;89.20;;
24305;SDS011;12423;48.768;8.850;2023-02-11T06:43:26;162.30;;;76.28;;
24305;SDS011;12423;48.768;8.850;2023-02-11T06:45:27;154.40;;;83.93;;
24305;SDS011;12423;48.768;8.850;2023-02-11T06:47:28;154.65;;;85.53;;
24305;SDS011;12423;48.768;8.850;2023-02-11T06:49:29;178.35;;;92.00;;
24305;SDS011;12423;48.768;8.850;2023-02-11T06:51:30;134.95;;;82.32;;
24305;SDS011;12423;48.768;8.850;2023-02-11T06:53:31;192.30;;;91.00;;
24305;SDS011;12423;48.768;8.850;2023-02-11T06:55:35;168.35;;;87.63;;
24305;SDS011;12423;48.768;8.850;2023-02-11T06:57:36;179.85;;;80.47;;
24305;SDS011;12423;48.768;8.850;2023-02-11T06:59:37;180.93;;;90.13;;
24305;SDS011;12423;48.768;8.850;2023-02-11T07:01:38;172.20;;;86.25;;
24305;SDS011;12423;48.768;8.850;2023-02-11T07:03:40;206.82;;;95.78;;
24305;SDS011;12423;48.768;8.850;2023-02-11T07:05:45;200.65;;;93.93;;
24305;SDS011;12423;48.768;8.850;2023-02-11T07:07:46;184.48;;;92.65;;
24305;SDS011;12423;48.768;8.850;2023-02-11T07:09:47;203.05;;;100.75;;
24305;SDS011;12423;48.768;8.850;2023-02-11T07:11:48;205.32;;;92.82;;
24305;SDS011;12423;48.768;8.850;2023-02-11T07:13:49;241.57;;;102.18;;
24305;SDS011;12423;48.768;8.850;2023-02-11T07:15:51;201.38;;;97.30;;
24305;SDS011;12423;48.768;8.850;2023-02-11T07:17:52;218.23;;;99.47;;
24305;SDS011;12423;48.768;8.850;2023-02-11T07:19:53;218.48;;;97.32;;
24305;SDS011;12423;48.768;8.850;2023-02-11T07:21:54;185.60;;;88.60;;
24305;SDS011;12423;48.768;8.850;2023-02-11T07:23:55;152.52;;;83.85;;
24305;SDS011;12423;48.768;8.850;2023-02-11T07:25:56;165.82;;;93.65;;
24305;SDS011;12423;48.768;8.850;2023-02-11T07:27:57;151.85;;;89.60;;
24305;SDS011;12423;48.768;8.850;2023-02-11T07:29:58;155.02;;;93.72;;
24305;SDS011;12423;48.768;8.850;2023-02-11T07:31:59;152.02;;;83.57;;
24305;SDS011;12423;48.768;8.850;2023-02-11T07:34:00;162.82;;;91.10;;
24305;SDS011;12423;48.768;8.850;2023-02-11T07:36:02;175.93;;;87.40;;
24305;SDS011;12423;48.768;8.850;2023-02-11T07:38:04;143.95;;;90.97;;
24305;SDS011;12423;48.768;8.850;2023-02-11T07:40:05;146.43;;;97.30;;
24305;SDS011;12423;48.768;8.850;2023-02-11T07:42:07;129.07;;;95.45;;
24305;SDS011;12423;48.768;8.850;2023-02-11T07:44:08;115.65;;;82.13;;
24305;SDS011;12423;48.768;8.850;2023-02-11T07:46:14;131.50;;;91.00;;
24305;SDS011;12423;48.768;8.850;2023-02-11T07:48:17;148.35;;;95.05;;
24305;SDS011;12423;48.768;8.850;2023-02-11T07:50:18;166.73;;;105.65;;
24305;SDS011;12423;48.768;8.850;2023-02-11T07:52:19;119.38;;;91.40;;
24305;SDS011;12423;48.768;8.850;2023-02-11T07:54:20;118.45;;;89.72;;
24305;SDS011;12423;48.768;8.850;2023-02-11T07:56:21;92.25;;;82.10;;
24305;SDS011;12423;48.768;8.850;2023-02-11T07:58:23;114.63;;;91.75;;
24305;SDS011;12423;48.768;8.850;2023-02-11T08:00:24;147.25;;;93.95;;
24305;SDS011;12423;48.768;8.850;2023-02-11T08:02:25;151.40;;;105.43;;
24305;SDS011;12423;48.768;8.850;2023-02-11T08:04:27;128.18;;;91.97;;
24305;SDS011;12423;48.768;8.850;2023-02-11T08:06:29;150.10;;;99.00;;
24305;SDS011;12423;48.768;8.850;2023-02-11T08:08:32;135.38;;;95.07;;
24305;SDS011;12423;48.768;8.850;2023-02-11T08:10:33;124.65;;;99.03;;
24305;SDS011;12423;48.768;8.850;2023-02-11T08:12:34;101.75;;;91.00;;
24305;SDS011;12423;48.768;8.850;2023-02-11T08:14:35;120.20;;;101.10;;
24305;SDS011;12423;48.768;8.850;2023-02-11T08:16:36;131.18;;;101.43;;
24305;SDS011;12423;48.768;8.850;2023-02-11T08:18:38;148.27;;;101.93;;
24305;SDS011;12423;48.768;8.850;2023-02-11T08:20:39;231.55;;;123.65;;
24305;SDS011;12423;48.768;8.850;2023-02-11T08:22:40;509.92;;;182.73;;
24305;SDS011;12423;48.768;8.850;2023-02-11T08:24:41;492.58;;;185.68;;
24305;SDS011;12423;48.768;8.850;2023-02-11T08:26:42;330.08;;;133.75;;
24305;SDS011;12423;48.768;8.850;2023-02-11T08:28:44;337.58;;;137.45;;
24305;SDS011;12423;48.768;8.850;2023-02-11T08:30:46;294.58;;;127.72;;
24305;SDS011;12423;48.768;8.850;2023-02-11T08:32:47;390.88;;;145.68;;
24305;SDS011;12423;48.768;8.850;2023-02-11T08:34:51;262.05;;;137.88;;
24305;SDS011;12423;48.768;8.850;2023-02-11T08:36:52;234.70;;;134.07;;
24305;SDS011;12423;48.768;8.850;2023-02-11T08:38:54;165.90;;;129.55;;
24305;SDS011;12423;48.768;8.850;2023-02-11T08:40:58;212.20;;;131.30;;
24305;SDS011;12423;48.768;8.850;2023-02-11T08:42:59;329.65;;;146.75;;
24305;SDS011;12423;48.768;8.850;2023-02-11T08:45:00;264.23;;;144.30;;
24305;SDS011;12423;48.768;8.850;2023-02-11T08:47:01;318.95;;;160.18;;
24305;SDS011;12423;48.768;8.850;2023-02-11T08:49:02;259.13;;;137.07;;
24305;SDS011;12423;48.768;8.850;2023-02-11T08:51:06;320.95;;;160.63;;
24305;SDS011;12423;48.768;8.850;2023-02-11T08:53:09;257.15;;;137.95;;
24305;SDS011;12423;48.768;8.850;2023-02-11T08:55:10;262.38;;;164.07;;
24305;SDS011;12423;48.768;8.850;2023-02-11T08:57:11;297.85;;;161.48;;
24305;SDS011;12423;48.768;8.850;2023-02-11T08:59:12;337.13;;;162.90;;
24305;SDS011;12423;48.768;8.850;2023-02-11T09:01:19;349.90;;;171.45;;
24305;SDS011;12423;48.768;8.850;2023-02-11T09:03:21;262.05;;;152.18;;
24305;SDS011;12423;48.768;8.850;2023-02-11T09:05:22;295.20;;;158.90;;
24305;SDS011;12423;48.768;8.850;2023-02-11T09:07:23;295.85;;;169.57;;
24305;SDS011;12423;48.768;8.850;2023-02-11T09:09:24;269.73;;;166.18;;
24305;SDS011;12423;48.768;8.850;2023-02-11T09:11:33;231.35;;;155.73;;
24305;SDS011;12423;48.768;8.850;2023-02-11T09:13:35;254.05;;;155.82;;
24305;SDS011;12423;48.768;8.850;2023-02-11T09:15:37;330.67;;;186.85;;
24305;SDS011;12423;48.768;8.850;2023-02-11T09:17:38;290.25;;;158.70;;
24305;SDS011;12423;48.768;8.850;2023-02-11T09:19:39;244.27;;;149.57;;
24305;SDS011;12423;48.768;8.850;2023-02-11T09:21:39;356.63;;;194.32;;
24305;SDS011;12423;48.768;8.850;2023-02-11T09:23:40;309.80;;;186.32;;
24305;SDS011;12423;48.768;8.850;2023-02-11T09:25:44;219.20;;;169.68;;
24305;SDS011;12423;48.768;8.850;2023-02-11T09:27:45;217.55;;;180.13;;
24305;SDS011;12423;48.768;8.850;2023-02-11T09:29:46;172.05;;;154.68;;
24305;SDS011;12423;48.768;8.850;2023-02-11T09:31:47;160.40;;;142.75;;
24305;SDS011;12423;48.768;8.850;2023-02-11T09:33:49;168.55;;;151.30;;
24305;SDS011;12423;48.768;8.850;2023-02-11T09:35:52;163.70;;;145.05;;
24305;SDS011;12423;48.768;8.850;2023-02-11T09:37:53;165.02;;;149.73;;
24305;SDS011;12423;48.768;8.850;2023-02-11T09:39:54;187.52;;;150.15;;
24305;SDS011;12423;48.768;8.850;2023-02-11T09:41:58;150.85;;;133.35;;
24305;SDS011;12423;48.768;8.850;2023-02-11T09:44:16;149.90;;;135.77;;
24305;SDS011;12423;48.768;8.850;2023-02-11T09:46:21;140.88;;;127.35;;
24305;SDS011;12423;48.768;8.850;2023-02-11T09:48:24;186.93;;;166.60;;
24305;SDS011;12423;48.768;8.850;2023-02-11T09:50:30;171.10;;;155.05;;
24305;SDS011;12423;48.768;8.850;2023-02-11T09:52:47;170.13;;;155.03;;
24305;SDS011;12423;48.768;8.850;2023-02-11T09:54:57;104.18;;;96.68;;
24305;SDS011;12423;48.768;8.850;2023-02-11T09:57:00;144.63;;;130.82;;
24305;SDS011;12423;48.768;8.850;2023-02-11T09:59:01;128.60;;;118.28;;
24305;SDS011;12423;48.768;8.850;2023-02-11T10:06:05;96.47;;;88.95;;
24305;SDS011;12423;48.768;8.850;2023-02-11T10:10:43;103.13;;;95.03;;
24305;SDS011;12423;48.768;8.850;2023-02-11T10:13:01;104.05;;;97.15;;
24305;SDS011;12423;48.768;8.850;2023-02-11T10:15:20;99.25;;;91.85;;
24305;SDS011;12423;48.768;8.850;2023-02-11T10:22:34;84.70;;;77.47;;
24305;SDS011;12423;48.768;8.850;2023-02-11T10:24:40;83.93;;;78.40;;
24305;SDS011;12423;48.768;8.850;2023-02-11T10:26:51;65.30;;;60.78;;
24305;SDS011;12423;48.768;8.850;2023-02-11T10:28:52;53.90;;;50.42;;
24305;SDS011;12423;48.768;8.850;2023-02-11T10:31:06;38.85;;;36.05;;
24305;SDS011;12423;48.768;8.850;2023-02-11T10:33:12;35.75;;;33.30;;
24305;SDS011;12423;48.768;8.850;2023-02-11T10:35:22;57.88;;;53.75;;
24305;SDS011;12423;48.768;8.850;2023-02-11T10:37:24;31.38;;;28.30;;
24305;SDS011;12423;48.768;8.850;2023-02-11T10:39:25;79.18;;;74.30;;
24305;SDS011;12423;48.768;8.850;2023-02-11T10:41:30;81.88;;;76.55;;
24305;SDS011;12423;48.768;8.850;2023-02-11T10:43:36;75.78;;;71.25;;
24305;SDS011;12423;48.768;8.850;2023-02-11T10:45:38;97.55;;;91.90;;
24305;SDS011;12423;48.768;8.850;2023-02-11T10:47:42;184.55;;;172.25;;
24305;SDS011;12423;48.768;8.850;2023-02-11T10:49:44;205.27;;;192.10;;
24305;SDS011;12423;48.768;8.850;2023-02-11T10:51:46;235.93;;;218.50;;
24305;SDS011;12423;48.768;8.850;2023-02-11T10:53:48;127.70;;;119.78;;
24305;SDS011;12423;48.768;8.850;2023-02-11T10:56:22;123.78;;;116.90;;
24305;SDS011;12423;48.768;8.850;2023-02-11T10:58:39;120.55;;;112.20;;
24305;SDS011;12423;48.768;8.850;2023-02-11T11:00:45;189.43;;;177.38;;
24305;SDS011;12423;48.768;8.850;2023-02-11T11:02:53;257.65;;;238.88;;
24305;SDS011;12423;48.768;8.850;2023-02-11T11:04:57;285.35;;;258.90;;
24305;SDS011;12423;48.768;8.850;2023-02-11T11:07:11;321.38;;;283.23;;
24305;SDS011;12423;48.768;8.850;2023-02-11T11:09:26;270.42;;;244.27;;
24305;SDS011;12423;48.768;8.850;2023-02-11T11:11:29;221.98;;;206.98;;
24305;SDS011;12423;48.768;8.850;2023-02-11T11:13:32;257.58;;;238.70;;
24305;SDS011;12423;48.768;8.850;2023-02-11T11:15:35;312.52;;;279.75;;
24305;SDS011;12423;48.768;8.850;2023-02-11T11:17:36;394.30;;;284.88;;
24305;SDS011;12423;48.768;8.850;2023-02-11T11:19:37;560.15;;;271.67;;
24305;SDS011;12423;48.768;8.850;2023-02-11T11:21:45;287.10;;;263.88;;
24305;SDS011;12423;48.768;8.850;2023-02-11T11:23:56;339.38;;;308.42;;
24305;SDS011;12423;48.768;8.850;2023-02-11T11:26:09;345.10;;;318.65;;
24305;SDS011;12423;48.768;8.850;2023-02-11T11:28:22;357.45;;;325.67;;
24305;SDS011;12423;48.768;8.850;2023-02-11T11:30:26;322.30;;;298.17;;
24305;SDS011;12423;48.768;8.850;2023-02-11T11:32:33;437.85;;;404.38;;
24305;SDS011;12423;48.768;8.850;2023-02-11T11:34:37;381.60;;;359.80;;
24305;SDS011;12423;48.768;8.850;2023-02-11T11:36:41;474.52;;;446.60;;
24305;SDS011;12423;48.768;8.850;2023-02-11T11:38:54;383.52;;;361.17;;
24305;SDS011;12423;48.768;8.850;2023-02-11T11:41:14;311.55;;;295.25;;
24305;SDS011;12423;48.768;8.850;2023-02-11T11:43:30;348.13;;;329.13;;
24305;SDS011;12423;48.768;8.850;2023-02-11T11:45:31;339.98;;;321.50;;
24305;SDS011;12423;48.768;8.850;2023-02-11T11:47:33;358.73;;;338.58;;
24305;SDS011;12423;48.768;8.850;2023-02-11T11:49:50;287.25;;;270.45;;
24305;SDS011;12423;48.768;8.850;2023-02-11T11:54:26;426.73;;;400.40;;
24305;SDS011;12423;48.768;8.850;2023-02-11T11:56:33;645.78;;;601.00;;
24305;SDS011;12423;48.768;8.850;2023-02-11T11:58:39;629.97;;;586.17;;
24305;SDS011;12423;48.768;8.850;2023-02-11T12:00:43;874.67;;;811.33;;
24305;SDS011;12423;48.768;8.850;2023-02-11T12:07:49;918.38;;;850.50;;
24305;SDS011;12423;48.768;8.850;2023-02-11T12:15:16;782.80;;;723.33;;
24305;SDS011;12423;48.768;8.850;2023-02-11T12:26:55;638.65;;;591.33;;
24305;SDS011;12423;48.768;8.850;2023-02-11T12:37:57;641.78;;;593.83;;
24305;SDS011;12423;48.768;8.850;2023-02-11T12:47:11;685.53;;;635.78;;
24305;SDS011;12423;48.768;8.850;2023-02-11T12:51:43;752.28;;;697.88;;
24305;SDS011;12423;48.768;8.850;2023-02-11T12:56:02;699.13;;;649.60;;
24305;SDS011;12423;48.768;8.850;2023-02-11T12:58:06;750.88;;;697.58;;
24305;SDS011;12423;48.768;8.850;2023-02-11T13:02:30;599.17;;;557.95;;
24305;SDS011;12423;48.768;8.850;2023-02-11T13:04:45;643.00;;;598.78;;
24305;SDS011;12423;48.768;8.850;2023-02-11T13:06:53;634.57;;;590.17;;
24305;SDS011;12423;48.768;8.850;2023-02-11T13:09:00;612.78;;;569.85;;
24305;SDS011;12423;48.768;8.850;2023-02-11T13:11:12;595.65;;;553.90;;